Time;durP1;ratioP1;P1;durP2;ratioP2;P2;SDS_P1;SDS_P2;PMS_P1;PMS_P2;Temp;Humidity;BMP_temperature;BMP_pressure;BME280_temperature;BME280_humidity;BME280_pressure;Samples;Min_cycle;Max_cycle;Signal;HPM_P1;HPM_P2
2022/03/02 00:02:06;;;;;;;56.30;35.60;;;77.00;2227.20;;;;;;4938185;29;20079;-82
2022/03/02 00:04:31;;;;;;;54.03;34.95;;;77.00;2227.20;;;;;;4938133;29;20122;-79
2022/03/02 00:06:57;;;;;;;47.58;32.13;;;77.00;2227.20;;;;;;4937798;29;20035;-83
2022/03/02 00:09:24;;;;;;;40.65;28.40;;;77.00;2227.20;;;;;;4939219;29;20095;-82
2022/03/02 00:11:49;;;;;;;43.70;28.63;;;77.00;2227.20;;;;;;4939153;29;20028;-79
2022/03/02 00:14:15;;;;;;;40.17;27.08;;;77.00;2227.20;;;;;;4937988;29;20031;-81
2022/03/02 00:16:41;;;;;;;45.88;29.83;;;77.10;2227.20;;;;;;4938370;29;20035;-83
2022/03/02 00:19:09;;;;;;;54.22;33.40;;;77.10;2227.20;;;;;;4937907;29;20381;-83
2022/03/02 00:21:35;;;;;;;44.90;30.15;;;77.10;2227.20;;;;;;4937940;29;20454;-84
2022/03/02 00:24:03;;;;;;;44.35;29.30;;;77.10;2227.20;;;;;;4938328;29;20468;-82
2022/03/02 00:26:31;;;;;;;39.33;28.73;;;77.20;2227.20;;;;;;4937760;29;20023;-82
2022/03/02 00:28:57;;;;;;;41.10;26.95;;;77.20;2227.20;;;;;;4938324;29;20024;-81
2022/03/02 00:31:23;;;;;;;43.25;29.83;;;77.20;2227.20;;;;;;4941258;29;20031;-79
2022/03/02 00:33:48;;;;;;;38.95;26.85;;;77.20;2227.20;;;;;;4940917;29;20030;-84
2022/03/02 00:36:14;;;;;;;40.15;25.92;;;77.20;2227.20;;;;;;4941144;29;20526;-81
2022/03/02 00:38:40;;;;;;;35.80;25.30;;;77.30;2227.20;;;;;;4958378;29;20027;-82
2022/03/02 00:41:06;;;;;;;37.97;25.40;;;77.30;2227.20;;;;;;4940607;29;20027;-83
2022/03/02 00:43:33;;;;;;;34.15;23.80;;;77.30;2227.20;;;;;;4941152;29;20114;-82
2022/03/02 00:45:58;;;;;;;39.80;27.55;;;77.30;2227.20;;;;;;4940896;29;20024;-79
2022/03/02 00:48:25;;;;;;;35.58;25.95;;;77.40;2227.20;;;;;;4940627;29;20069;-80
2022/03/02 00:50:51;;;;;;;42.47;26.45;;;77.30;2227.20;;;;;;4940927;29;20369;-84
2022/03/02 00:53:17;;;;;;;40.78;28.65;;;77.20;2227.20;;;;;;4940789;29;20023;-82
2022/03/02 00:55:43;;;;;;;39.65;27.52;;;77.20;2227.20;;;;;;4940545;29;20469;-80
2022/03/02 00:58:09;;;;;;;34.72;24.02;;;77.20;2227.20;;;;;;4957686;29;20110;-80
2022/03/02 01:00:35;;;;;;;36.58;25.63;;;77.20;2227.20;;;;;;4957881;29;20362;-81
2022/03/02 01:03:01;;;;;;;41.00;27.00;;;77.20;2227.20;;;;;;4940298;29;20034;-82
2022/03/02 01:05:27;;;;;;;34.13;25.40;;;77.10;2227.20;;;;;;4939882;29;20023;-79
2022/03/02 01:07:53;;;;;;;36.97;23.85;;;77.10;2227.20;;;;;;4940542;29;20078;-83
2022/03/02 01:10:19;;;;;;;33.88;23.27;;;77.20;2227.20;;;;;;4940263;29;20027;-81
2022/03/02 01:12:45;;;;;;;32.65;22.00;;;77.20;2227.20;;;;;;4940462;29;20023;-80
2022/03/02 01:15:12;;;;;;;32.38;22.60;;;77.20;2227.20;;;;;;4940222;29;20026;-84
2022/03/02 01:17:39;;;;;;;32.95;22.65;;;77.10;2227.20;;;;;;4940362;29;20019;-82
2022/03/02 01:20:07;;;;;;;31.27;22.50;;;77.00;2227.20;;;;;;4940338;29;20027;-83
2022/03/02 01:22:34;;;;;;;32.33;23.33;;;77.10;2227.20;;;;;;4940101;29;20552;-82
2022/03/02 01:25:00;;;;;;;30.20;21.08;;;77.10;2227.20;;;;;;4940006;29;20033;-82
2022/03/02 01:27:26;;;;;;;36.63;24.40;;;77.10;2227.20;;;;;;4957366;29;20023;-83
2022/03/02 01:29:52;;;;;;;34.38;23.48;;;77.10;2227.20;;;;;;4936369;29;20056;-83
2022/03/02 01:32:19;;;;;;;36.70;23.40;;;77.10;2227.20;;;;;;4936749;29;20023;-83
2022/03/02 01:34:45;;;;;;;33.47;23.20;;;77.10;2227.20;;;;;;4921052;29;20050;-81
2022/03/02 01:37:12;;;;;;;33.78;23.52;;;77.20;2227.20;;;;;;4938157;29;20035;-82
2022/03/02 01:39:38;;;;;;;37.88;25.92;;;77.00;2227.20;;;;;;4920969;29;20059;-83
2022/03/02 01:42:05;;;;;;;39.22;26.25;;;77.10;2227.20;;;;;;4920778;29;20032;-79
2022/03/02 01:44:33;;;;;;;35.05;23.98;;;77.30;2227.20;;;;;;4920404;29;20031;-79
2022/03/02 01:47:02;;;;;;;32.88;21.48;;;77.10;2227.20;;;;;;4938206;29;20107;-81
2022/03/02 01:49:28;;;;;;;33.53;23.02;;;77.10;2227.20;;;;;;4936679;29;20035;-83
2022/03/02 01:51:54;;;;;;;37.67;25.10;;;77.10;2227.20;;;;;;4936359;29;20468;-83
2022/03/02 01:54:20;;;;;;;36.83;25.55;;;77.10;2227.20;;;;;;4936519;29;20492;-84
2022/03/02 01:56:46;;;;;;;32.97;22.35;;;77.10;2227.20;;;;;;4936461;29;20024;-81
2022/03/02 01:59:12;;;;;;;36.30;24.95;;;77.00;2227.20;;;;;;4936212;29;20028;-78
2022/03/02 02:01:38;;;;;;;42.63;28.90;;;77.00;2227.20;;;;;;4937548;29;20035;-84
2022/03/02 02:04:06;;;;;;;33.55;23.40;;;77.00;2227.20;;;;;;4936020;29;20079;-82
2022/03/02 02:06:32;;;;;;;37.20;24.70;;;77.00;2227.20;;;;;;4936264;29;20152;-81
2022/03/02 02:08:59;;;;;;;38.60;26.52;;;76.90;2227.20;;;;;;4936067;29;20063;-82
2022/03/02 02:11:25;;;;;;;40.25;26.58;;;76.80;2227.20;;;;;;4919739;29;20031;-82
2022/03/02 02:13:51;;;;;;;38.70;23.60;;;77.00;2227.20;;;;;;4920400;29;20030;-83
2022/03/02 02:16:20;;;;;;;34.78;23.13;;;76.90;2227.20;;;;;;4919345;29;20027;-81
2022/03/02 02:18:47;;;;;;;43.75;25.98;;;77.00;2227.20;;;;;;4935919;29;20046;-79
2022/03/02 02:21:13;;;;;;;37.28;24.17;;;77.00;2227.20;;;;;;4936091;29;20028;-81
2022/03/02 02:23:39;;;;;;;31.67;22.20;;;77.00;2227.20;;;;;;4935943;29;20458;-81
2022/03/02 02:26:06;;;;;;;33.58;22.70;;;77.00;2227.20;;;;;;4936908;29;20020;-79
2022/03/02 02:28:33;;;;;;;38.03;24.67;;;77.00;2227.20;;;;;;4935928;29;20023;-79
2022/03/02 02:31:00;;;;;;;34.42;23.90;;;76.90;2227.20;;;;;;4935956;29;20138;-78
2022/03/02 02:33:27;;;;;;;40.05;27.60;;;76.90;2227.20;;;;;;4919644;29;20028;-81
2022/03/02 02:35:54;;;;;;;37.83;25.65;;;76.90;2227.20;;;;;;4937410;29;20151;-83
2022/03/02 02:38:21;;;;;;;39.03;27.20;;;76.90;2227.20;;;;;;4919943;29;20027;-81
2022/03/02 02:40:48;;;;;;;47.40;29.30;;;77.00;2227.20;;;;;;4919710;29;20066;-81
2022/03/02 02:43:15;;;;;;;35.00;23.05;;;77.00;2227.20;;;;;;4919917;29;20031;-81
2022/03/02 02:45:41;;;;;;;31.42;23.73;;;76.90;2227.20;;;;;;4935603;29;20024;-83
2022/03/02 02:48:07;;;;;;;35.78;25.30;;;76.90;2227.20;;;;;;4935287;29;20027;-82
2022/03/02 02:50:33;;;;;;;41.90;28.48;;;76.90;2227.20;;;;;;4935771;29;20058;-81
2022/03/02 02:53:02;;;;;;;32.95;23.15;;;76.90;2227.20;;;;;;4935230;29;20028;-85
2022/03/02 02:55:29;;;;;;;31.52;22.60;;;77.00;2227.20;;;;;;4936686;29;20023;-84
2022/03/02 02:57:56;;;;;;;33.13;22.20;;;76.90;2227.20;;;;;;4936779;29;20460;-82
2022/03/02 03:00:24;;;;;;;33.35;24.25;;;76.90;2227.20;;;;;;4919301;29;20036;-82
2022/03/02 03:02:52;;;;;;;34.00;23.67;;;76.90;2227.20;;;;;;4935514;29;20359;-82
2022/03/02 03:05:20;;;;;;;33.13;23.20;;;76.90;2227.20;;;;;;4919654;29;20450;-82
2022/03/02 03:07:47;;;;;;;29.83;21.33;;;77.00;2227.20;;;;;;4936208;29;20596;-82
2022/03/02 03:10:14;;;;;;;30.60;20.85;;;77.00;2227.20;;;;;;4919696;29;20078;-80
2022/03/02 03:12:44;;;;;;;26.98;20.48;;;77.00;2227.20;;;;;;4935379;29;20035;-83
2022/03/02 03:15:12;;;;;;;32.22;21.83;;;77.00;2227.20;;;;;;4919316;29;20131;-83
2022/03/02 03:17:39;;;;;;;29.80;20.73;;;77.00;2227.20;;;;;;4936799;29;20047;-81
2022/03/02 03:20:07;;;;;;;30.70;21.88;;;77.10;2227.20;;;;;;4936542;29;20024;-81
2022/03/02 03:22:33;;;;;;;32.78;21.30;;;77.00;2227.20;;;;;;4919082;29;20032;-82
2022/03/02 03:25:00;;;;;;;32.20;21.95;;;76.90;2227.20;;;;;;4935151;29;20027;-82
2022/03/02 03:27:26;;;;;;;30.95;22.20;;;76.90;2227.20;;;;;;4936909;29;20454;-81
2022/03/02 03:29:52;;;;;;;32.10;21.38;;;77.00;2227.20;;;;;;4938577;29;20054;-81
2022/03/02 03:32:18;;;;;;;33.30;21.48;;;76.90;2227.20;;;;;;4939249;29;20024;-83
2022/03/02 03:34:44;;;;;;;33.63;20.63;;;76.90;2227.20;;;;;;4939103;29;20372;-83
2022/03/02 03:37:10;;;;;;;37.22;25.52;;;77.00;2227.20;;;;;;4938868;29;20032;-81
2022/03/02 03:39:36;;;;;;;41.20;27.80;;;77.00;2227.20;;;;;;4940295;29;20028;-81
2022/03/02 03:42:02;;;;;;;45.45;29.98;;;76.90;2227.20;;;;;;4938647;29;20476;-80
2022/03/02 03:44:28;;;;;;;45.20;29.38;;;76.90;2227.20;;;;;;4939126;29;20106;-79
2022/03/02 03:46:54;;;;;;;57.75;34.58;;;76.90;2227.20;;;;;;4922671;29;20027;-80
2022/03/02 03:49:19;;;;;;;52.50;33.08;;;76.80;2227.20;;;;;;4939881;29;20373;-81
2022/03/02 03:51:45;;;;;;;40.28;25.88;;;76.80;2227.20;;;;;;4938780;29;20024;-82
2022/03/02 03:54:11;;;;;;;41.15;24.60;;;76.90;2227.20;;;;;;4938851;29;20028;-80
2022/03/02 03:56:37;;;;;;;36.88;24.58;;;76.90;2227.20;;;;;;4939788;29;20031;-83
2022/03/02 03:59:03;;;;;;;34.05;21.80;;;76.90;2227.20;;;;;;4938636;29;20027;-82
2022/03/02 04:01:30;;;;;;;38.65;23.45;;;76.90;2227.20;;;;;;4938565;29;20090;-80
2022/03/02 04:03:56;;;;;;;44.10;26.48;;;76.90;2227.20;;;;;;4938323;29;20063;-81
2022/03/02 04:06:22;;;;;;;36.92;25.13;;;76.90;2227.20;;;;;;4938596;29;20074;-82
2022/03/02 04:08:48;;;;;;;49.88;28.70;;;76.90;2227.20;;;;;;4938367;29;20474;-81
2022/03/02 04:11:14;;;;;;;54.15;31.70;;;76.80;2227.20;;;;;;4938232;29;20024;-81
2022/03/02 04:13:40;;;;;;;52.22;32.03;;;52.10;2227.20;;;;;;4938513;29;20476;-82
2022/03/02 04:16:06;;;;;;;48.88;27.98;;;52.00;2227.20;;;;;;4939328;29;20028;-81
2022/03/02 04:18:32;;;;;;;72.38;44.60;;;52.10;2227.20;;;;;;4938219;29;20032;-82
2022/03/02 04:20:58;;;;;;;76.25;49.67;;;52.00;2227.20;;;;;;4939502;29;20035;-81
2022/03/02 04:23:25;;;;;;;73.38;46.70;;;77.00;2227.20;;;;;;4922525;29;20483;-80
2022/03/02 04:25:51;;;;;;;71.70;43.47;;;52.00;2227.20;;;;;;4938032;29;20020;-84
2022/03/02 04:28:17;;;;;;;67.63;43.95;;;52.10;2227.20;;;;;;4938241;29;20034;-82
2022/03/02 04:30:43;;;;;;;63.10;35.05;;;52.10;2227.20;;;;;;4937707;29;20055;-82
2022/03/02 04:33:09;;;;;;;49.40;32.65;;;52.10;2227.20;;;;;;4937926;29;20028;-83
2022/03/02 04:35:35;;;;;;;42.65;28.50;;;52.10;2227.20;;;;;;4938108;29;20034;-85
2022/03/02 04:38:03;;;;;;;44.70;26.08;;;76.80;2227.20;;;;;;4937990;29;20588;-83
2022/03/02 04:40:29;;;;;;;47.28;26.70;;;76.90;2227.20;;;;;;4938213;29;20031;-84
2022/03/02 04:42:55;;;;;;;51.53;28.35;;;76.80;2227.20;;;;;;4939278;29;20027;-82
2022/03/02 04:45:25;;;;;;;54.20;30.48;;;76.90;2227.20;;;;;;4938837;29;20454;-82
2022/03/02 04:47:52;;;;;;;37.25;24.77;;;76.90;2227.20;;;;;;4939287;29;20071;-84
2022/03/02 04:50:19;;;;;;;71.53;36.42;;;76.80;2227.20;;;;;;4937885;29;20469;-84
2022/03/02 04:52:46;;;;;;;45.97;28.52;;;76.90;2227.20;;;;;;4921697;29;20030;-83
2022/03/02 04:55:12;;;;;;;38.05;24.90;;;76.80;2227.20;;;;;;4921864;29;20024;-84
2022/03/02 04:57:38;;;;;;;55.25;32.20;;;76.80;2227.20;;;;;;4921869;29;20051;-82
2022/03/02 05:00:12;;;;;;;41.58;24.83;;;76.90;2227.20;;;;;;4921620;29;20027;-83
2022/03/02 05:02:38;;;;;;;39.65;26.30;;;76.90;2227.20;;;;;;4921959;29;20039;-81
2022/03/02 05:05:13;;;;;;;42.42;25.85;;;76.90;2227.20;;;;;;4937332;29;20032;-83
2022/03/02 05:07:40;;;;;;;53.72;29.25;;;76.90;2227.20;;;;;;4921199;29;20028;-82
2022/03/02 05:10:07;;;;;;;45.95;28.17;;;76.80;2227.20;;;;;;4921548;29;20513;-84
2022/03/02 05:12:33;;;;;;;39.42;24.95;;;76.80;2227.20;;;;;;4937267;29;20048;-83
2022/03/02 05:14:59;;;;;;;44.88;28.83;;;76.80;2227.20;;;;;;4938702;29;20059;-81
2022/03/02 05:17:25;;;;;;;52.08;31.92;;;52.10;2227.20;;;;;;4955545;29;20072;-82
2022/03/02 05:19:52;;;;;;;47.65;30.27;;;76.80;2227.20;;;;;;4940562;29;20118;-83
2022/03/02 05:22:18;;;;;;;58.92;35.33;;;52.10;2227.20;;;;;;4921215;29;20476;-83
2022/03/02 05:24:43;;;;;;;39.75;24.17;;;76.90;2227.20;;;;;;4937307;29;20023;-83
2022/03/02 05:27:09;;;;;;;34.15;22.95;;;76.80;2227.20;;;;;;4936924;29;20024;-84
2022/03/02 05:29:36;;;;;;;35.65;24.10;;;76.80;2227.20;;;;;;4921045;29;20054;-82
2022/03/02 05:32:03;;;;;;;39.78;25.25;;;76.80;2227.20;;;;;;4937084;29;20028;-82
2022/03/02 05:34:29;;;;;;;36.47;23.25;;;76.80;2227.20;;;;;;4936820;29;20049;-83
2022/03/02 05:36:55;;;;;;;36.63;23.63;;;76.80;2227.20;;;;;;4936963;29;20030;-83
2022/03/02 05:39:23;;;;;;;40.88;23.95;;;76.80;2227.20;;;;;;4921241;29;20028;-82
2022/03/02 05:41:49;;;;;;;33.85;21.20;;;76.90;2227.20;;;;;;4920773;29;20038;-83
2022/03/02 05:44:15;;;;;;;47.38;26.23;;;76.80;2227.20;;;;;;4936977;29;20023;-82
2022/03/02 05:46:41;;;;;;;46.45;27.65;;;76.80;2227.20;;;;;;4937743;29;20027;-82
2022/03/02 05:49:10;;;;;;;62.67;32.60;;;76.80;2227.20;;;;;;4936862;29;20024;-82
2022/03/02 05:51:36;;;;;;;50.55;29.80;;;76.80;2227.20;;;;;;4936548;29;20127;-83
2022/03/02 05:54:04;;;;;;;46.70;28.60;;;76.80;2227.20;;;;;;4936745;29;20019;-83
2022/03/02 05:56:31;;;;;;;70.95;36.55;;;76.80;2227.20;;;;;;4937553;29;20106;-82
2022/03/02 05:58:58;;;;;;;57.42;31.60;;;76.80;2227.20;;;;;;4920877;29;20118;-83
2022/03/02 06:01:24;;;;;;;58.63;30.75;;;76.80;2227.20;;;;;;4920508;29;20134;-82
2022/03/02 06:03:50;;;;;;;79.53;40.75;;;76.80;2227.20;;;;;;4936234;29;20063;-82
2022/03/02 06:06:16;;;;;;;62.03;33.92;;;76.80;2227.20;;;;;;4920390;29;20051;-81
2022/03/02 06:08:42;;;;;;;52.85;29.83;;;76.80;2227.20;;;;;;4936383;29;20024;-84
2022/03/02 06:11:09;;;;;;;52.80;31.13;;;76.90;2227.20;;;;;;4937390;29;20059;-82
2022/03/02 06:13:35;;;;;;;63.97;35.67;;;76.80;2227.20;;;;;;4936379;29;20024;-81
2022/03/02 06:16:02;;;;;;;39.63;25.77;;;76.90;2227.20;;;;;;4937179;29;20028;-83
2022/03/02 06:18:29;;;;;;;41.47;25.23;;;76.90;2227.20;;;;;;4936081;29;20108;-83
2022/03/02 06:21:00;;;;;;;40.67;24.58;;;76.90;2227.20;;;;;;4935983;29;20034;-83
2022/03/02 06:23:30;;;;;;;100.20;54.20;;;76.90;2227.20;;;;;;4920215;29;20034;-82
2022/03/02 06:25:57;;;;;;;42.78;25.92;;;76.90;2227.20;;;;;;4936236;29;20020;-82
2022/03/02 06:28:26;;;;;;;45.45;27.98;;;76.90;2227.20;;;;;;4936047;29;20034;-81
2022/03/02 06:30:52;;;;;;;45.10;27.95;;;76.90;2227.20;;;;;;4919737;29;20051;-83
2022/03/02 06:33:19;;;;;;;66.97;36.53;;;76.90;2227.20;;;;;;4935974;29;20362;-81
2022/03/02 06:35:49;;;;;;;61.03;34.90;;;76.90;2227.20;;;;;;4935906;29;20466;-83
2022/03/02 06:38:15;;;;;;;48.80;29.30;;;76.90;2227.20;;;;;;4935639;29;20378;-83
2022/03/02 06:40:53;;;;;;;41.53;27.00;;;77.40;2227.20;;;;;;4935823;29;20031;-83
2022/03/02 06:43:22;;;;;;;50.38;30.45;;;76.90;2227.20;;;;;;4936250;29;20036;-82
2022/03/02 06:45:54;;;;;;;56.08;34.47;;;77.00;2227.20;;;;;;4919913;29;20024;-82
2022/03/02 06:48:48;;;;;;;64.40;39.70;;;77.00;2227.20;;;;;;4920093;29;20031;-82
2022/03/02 06:51:18;;;;;;;55.78;32.45;;;77.10;2227.20;;;;;;4935502;29;20036;-82
2022/03/02 06:53:45;;;;;;;101.45;61.78;;;77.10;2227.20;;;;;;4919804;29;20032;-83
2022/03/02 06:56:10;;;;;;;79.65;46.97;;;77.10;2227.20;;;;;;4937038;29;20019;-82
2022/03/02 06:58:55;;;;;;;39.20;25.05;;;77.20;2227.20;;;;;;4935306;29;20369;-84
2022/03/02 07:01:29;;;;;;;68.25;41.90;;;77.30;2227.20;;;;;;4936653;29;20029;-82
2022/03/02 07:03:58;;;;;;;55.97;32.40;;;77.30;2227.20;;;;;;4919083;29;20067;-86
2022/03/02 07:06:26;;;;;;;58.13;36.40;;;77.30;2227.20;;;;;;4919248;29;20026;-84
2022/03/02 07:08:52;;;;;;;91.70;55.45;;;77.40;2227.20;;;;;;4919536;29;20024;-83
2022/03/02 07:11:19;;;;;;;46.13;28.92;;;77.40;2227.20;;;;;;4936691;29;20023;-80
2022/03/02 07:13:49;;;;;;;55.88;31.33;;;77.20;2227.20;;;;;;4919315;29;20517;-84
2022/03/02 07:16:16;;;;;;;47.30;29.55;;;77.40;2227.20;;;;;;4919478;29;20073;-82
2022/03/02 07:18:43;;;;;;;39.05;24.50;;;77.40;2227.20;;;;;;4935261;29;20386;-82
2022/03/02 07:21:14;;;;;;;45.83;28.02;;;77.40;2227.20;;;;;;4934969;29;20034;-82
2022/03/02 07:23:47;;;;;;;39.42;25.38;;;77.50;2227.20;;;;;;4935493;29;20027;-82
2022/03/02 07:26:16;;;;;;;34.30;23.52;;;77.50;2227.20;;;;;;4919293;29;20031;-80
2022/03/02 07:28:42;;;;;;;52.90;32.58;;;77.50;2227.20;;;;;;4936478;29;20020;-84
2022/03/02 07:31:08;;;;;;;43.28;28.02;;;77.60;2227.20;;;;;;4954542;29;20484;-80
2022/03/02 07:33:41;;;;;;;30.05;22.05;;;77.70;2227.20;;;;;;4938132;29;20037;-81
2022/03/02 07:36:09;;;;;;;50.15;35.08;;;77.60;2227.20;;;;;;4938409;29;20019;-80
2022/03/02 07:38:35;;;;;;;62.58;47.65;;;77.60;2227.20;;;;;;4938350;29;20027;-81
2022/03/02 07:41:09;;;;;;;38.42;29.88;;;77.60;2227.20;;;;;;4955275;29;20023;-81
2022/03/02 07:43:39;;;;;;;37.55;25.52;;;77.70;2227.20;;;;;;4938543;29;20031;-79
2022/03/02 07:46:10;;;;;;;34.58;23.85;;;77.70;2227.20;;;;;;4955497;29;20023;-83
2022/03/02 07:48:38;;;;;;;29.10;19.38;;;77.70;2227.20;;;;;;4955639;29;20022;-82
2022/03/02 07:51:08;;;;;;;38.55;23.50;;;77.70;2227.20;;;;;;4938212;29;20038;-82
2022/03/02 07:53:47;;;;;;;36.08;23.00;;;102.40;2227.20;;;;;;4955436;29;20023;-82
2022/03/02 07:56:15;;;;;;;45.97;31.65;;;102.40;2227.20;;;;;;4937854;29;20454;-79
2022/03/02 07:58:41;;;;;;;40.40;27.70;;;102.50;2227.20;;;;;;4938142;29;20023;-82
2022/03/02 08:01:11;;;;;;;38.20;25.73;;;102.60;2227.20;;;;;;4937759;29;20049;-83
2022/03/02 08:03:40;;;;;;;35.15;24.70;;;102.70;2227.20;;;;;;4955407;29;20114;-81
2022/03/02 08:06:07;;;;;;;41.45;26.38;;;102.80;2227.20;;;;;;4938056;29;20023;-82
2022/03/02 08:08:37;;;;;;;39.20;29.45;;;102.80;2227.20;;;;;;4937696;29;20033;-79
2022/03/02 08:11:04;;;;;;;40.25;26.63;;;102.90;2227.20;;;;;;4938214;29;20027;-81
2022/03/02 08:13:31;;;;;;;48.83;31.63;;;102.90;2227.20;;;;;;4955849;28;20061;-82
2022/03/02 08:15:58;;;;;;;44.25;28.90;;;103.00;2227.20;;;;;;4941180;29;20023;-81
2022/03/02 08:18:24;;;;;;;57.33;37.53;;;103.00;2227.20;;;;;;4941491;29;20031;-81
2022/03/02 08:20:52;;;;;;;39.92;28.15;;;103.10;2227.20;;;;;;4941425;29;20413;-82
2022/03/02 08:23:20;;;;;;;39.05;25.77;;;103.10;2227.20;;;;;;4958152;29;20072;-81
2022/03/02 08:25:50;;;;;;;47.40;32.28;;;103.20;2227.20;;;;;;4941606;29;20074;-81
2022/03/02 08:28:17;;;;;;;35.63;23.90;;;103.30;2227.20;;;;;;4941567;29;20023;-81
2022/03/02 08:30:44;;;;;;;40.45;27.08;;;128.10;2252.80;;;;;;4957686;29;20047;-76
2022/03/02 08:33:16;;;;;;;39.65;26.48;;;128.10;2252.80;;;;;;4962653;29;20027;-80
2022/03/02 08:35:42;;;;;;;41.05;25.35;;;128.20;2252.80;;;;;;4942877;29;20027;-82
2022/03/02 08:38:10;;;;;;;87.65;45.63;;;128.50;2252.80;;;;;;4958792;29;20023;-80
2022/03/02 08:40:38;;;;;;;45.92;27.65;;;128.30;2252.80;;;;;;4958553;29;20034;-80
2022/03/02 08:43:06;;;;;;;36.13;23.77;;;128.30;2252.80;;;;;;4940799;29;20038;-82
2022/03/02 08:45:32;;;;;;;66.38;36.10;;;128.40;2252.80;;;;;;4941222;29;20111;-78
2022/03/02 08:48:05;;;;;;;26.17;17.15;;;128.60;2252.80;;;;;;4941025;29;20027;-81
2022/03/02 08:50:31;;;;;;;;;;;128.70;2252.80;;;;;;4941385;29;20377;-82
2022/03/02 08:52:58;;;;;;;21.40;14.30;;;128.80;2252.80;;;;;;4940939;29;19926;-82
2022/03/02 08:55:29;;;;;;;29.30;19.90;;;128.90;2252.80;;;;;;4958425;29;20023;-80
2022/03/02 08:57:57;;;;;;;31.92;21.65;;;128.90;2252.80;;;;;;4940709;29;20027;-80
2022/03/02 09:00:23;;;;;;;33.17;23.08;;;153.60;2252.80;;;;;;4957885;29;20074;-79
2022/03/02 09:02:52;;;;;;;43.38;30.52;;;153.60;2252.80;;;;;;4957635;29;20031;-77
2022/03/02 09:05:19;;;;;;;45.30;28.25;;;128.90;2252.80;;;;;;4940316;29;20024;-78
2022/03/02 09:07:45;;;;;;;34.63;23.08;;;153.60;2252.80;;;;;;4957854;29;20453;-82
2022/03/02 09:10:11;;;;;;;50.13;30.20;;;153.60;2252.80;;;;;;4940661;29;20103;-78
2022/03/02 09:12:41;;;;;;;40.60;28.23;;;153.70;2252.80;;;;;;4957452;29;20019;-78
2022/03/02 09:15:07;;;;;;;24.58;18.23;;;153.80;2252.80;;;;;;4940571;29;20027;-77
2022/03/02 09:17:33;;;;;;;22.50;17.38;;;153.80;2252.80;;;;;;4957678;29;20111;-78
2022/03/02 09:19:59;;;;;;;27.52;18.08;;;153.80;2252.80;;;;;;4940118;29;20027;-78
2022/03/02 09:22:27;;;;;;;23.52;14.88;;;153.80;2252.80;;;;;;4957486;29;20023;-80
2022/03/02 09:24:53;;;;;;;23.20;15.18;;;153.90;2252.80;;;;;;4939958;28;20035;-74
2022/03/02 09:27:21;;;;;;;58.90;33.83;;;153.90;2252.80;;;;;;4939826;29;20435;-77
2022/03/02 09:29:48;;;;;;;43.13;27.13;;;154.00;2252.80;;;;;;4939797;29;20478;-80
2022/03/02 09:32:15;;;;;;;31.77;21.58;;;154.00;2252.80;;;;;;4939591;29;20042;-74
2022/03/02 09:34:48;;;;;;;49.30;32.40;;;154.10;2252.80;;;;;;4939926;29;20023;-79
2022/03/02 09:37:14;;;;;;;;;;;154.10;2252.80;;;;;;4940484;29;20027;-76
2022/03/02 09:39:42;;;;;;;72.18;38.60;;;154.10;2252.80;;;;;;4939902;29;19913;-77
2022/03/02 09:42:19;;;;;;;46.58;28.05;;;154.20;2252.80;;;;;;4939966;29;20023;-76
2022/03/02 09:44:56;;;;;;;37.47;24.13;;;154.30;2252.80;;;;;;4956853;29;20050;-77
2022/03/02 09:47:24;;;;;;;48.85;29.52;;;154.30;2252.80;;;;;;4939441;29;20020;-77
2022/03/02 09:49:57;;;;;;;54.25;35.63;;;154.30;2252.80;;;;;;4939803;29;20038;-78
2022/03/02 09:52:24;;;;;;;34.28;22.90;;;154.30;2252.80;;;;;;4956858;29;20034;-77
2022/03/02 09:54:58;;;;;;;47.95;29.60;;;154.30;2252.80;;;;;;4939509;29;20441;-79
2022/03/02 09:57:24;;;;;;;39.45;27.27;;;154.30;2252.80;;;;;;4955205;29;20481;-77
2022/03/02 09:59:55;;;;;;;28.60;20.10;;;154.30;2252.80;;;;;;4939178;29;20030;-80
2022/03/02 10:02:43;;;;;;;22.63;16.05;;;154.30;2252.80;;;;;;4956558;29;20024;-78
2022/03/02 10:05:16;;;;;;;24.98;16.25;;;154.20;2201.60;;;;;;4939492;29;20023;-78
2022/03/02 10:07:46;;;;;;;20.75;15.18;;;154.10;2227.20;;;;;;4939270;29;20034;-81
2022/03/02 10:10:18;;;;;;;33.38;20.15;;;154.10;2227.20;;;;;;4956904;29;20030;-79
2022/03/02 10:12:44;;;;;;;33.60;20.23;;;154.10;2252.80;;;;;;4939356;29;20023;-78
2022/03/02 10:15:14;;;;;;;24.15;16.80;;;154.10;2252.80;;;;;;4939149;29;20027;-76
2022/03/02 10:17:47;;;;;;;30.73;20.90;;;154.10;2227.20;;;;;;4939293;29;20529;-79
2022/03/02 10:20:15;;;;;;;27.90;19.25;;;154.00;2227.20;;;;;;4939162;29;20536;-78
2022/03/02 10:22:45;;;;;;;23.55;16.80;;;154.00;2201.60;;;;;;4939019;29;20035;-78
2022/03/02 10:25:14;;;;;;;18.75;12.90;;;154.00;2201.60;;;;;;4939190;29;20413;-79
2022/03/02 10:28:05;;;;;;;26.27;18.05;;;154.00;2201.60;;;;;;4939187;29;20031;-78
2022/03/02 10:30:36;;;;;;;20.48;13.38;;;153.90;2201.60;;;;;;4938803;29;20057;-81
2022/03/02 10:33:18;;;;;;;45.00;32.50;;;153.90;2201.60;;;;;;4956329;29;20027;-75
2022/03/02 10:36:04;;;;;;;21.10;15.10;;;153.90;2252.80;;;;;;4938774;29;20031;-79
2022/03/02 10:38:50;;;;;;;32.15;20.15;;;153.80;2201.60;;;;;;4955507;28;20027;-80
2022/03/02 10:41:20;;;;;;;27.05;17.42;;;153.80;2176.00;;;;;;4938979;29;20027;-79
2022/03/02 10:44:04;;;;;;;22.00;16.17;;;153.80;2150.40;;;;;;4938639;29;20034;-79
2022/03/02 10:46:30;;;;;;;25.67;16.35;;;153.60;2150.40;;;;;;4939029;29;20369;-75
2022/03/02 10:49:07;;;;;;;47.30;25.70;;;153.70;2150.40;;;;;;4938370;29;20094;-78
2022/03/02 10:51:34;;;;;;;23.63;14.40;;;153.80;2176.00;;;;;;4938556;29;20106;-78
2022/03/02 10:54:06;;;;;;;28.05;17.83;;;153.70;2176.00;;;;;;4937316;29;20089;-79
2022/03/02 10:56:39;;;;;;;23.75;14.32;;;153.70;2150.40;;;;;;4919416;29;20066;-80
2022/03/02 10:59:16;;;;;;;24.17;15.63;;;128.90;2150.40;;;;;;4919597;29;20062;-79
2022/03/02 11:01:44;;;;;;;35.72;22.98;;;128.90;2176.00;;;;;;4937154;29;20050;-80
2022/03/02 11:04:10;;;;;;;45.63;27.85;;;128.90;2201.60;;;;;;4938027;29;20536;-80
2022/03/02 11:06:38;;;;;;;32.40;21.67;;;153.60;2201.60;;;;;;4955418;29;20019;-79
2022/03/02 11:09:05;;;;;;;34.55;21.13;;;153.70;2201.60;;;;;;4938293;29;20461;-78
2022/03/02 11:11:38;;;;;;;37.17;21.70;;;154.40;2227.20;;;;;;4955209;29;20027;-79
2022/03/02 11:14:08;;;;;;;30.75;19.38;;;153.90;2176.00;;;;;;4938387;29;20025;-76
2022/03/02 11:16:34;;;;;;;56.45;32.10;;;153.80;2201.60;;;;;;4938307;29;20031;-79
2022/03/02 11:19:13;;;;;;;40.65;24.92;;;153.80;2252.80;;;;;;4945035;29;20461;-79
2022/03/02 11:21:42;;;;;;;38.22;23.45;;;153.90;2252.80;;;;;;4937587;29;20039;-78
2022/03/02 11:24:09;;;;;;;38.97;23.23;;;154.00;2252.80;;;;;;4938072;29;20122;-80
2022/03/02 11:26:40;;;;;;;39.17;24.42;;;153.90;2252.80;;;;;;4950058;29;21602;-79
2022/03/02 11:29:15;;;;;;;33.45;21.92;;;154.00;2252.80;;;;;;4937908;29;20453;-79
2022/03/02 11:31:46;;;;;;;28.58;19.00;;;154.00;2252.80;;;;;;4940743;29;20461;-78
2022/03/02 11:34:15;;;;;;;37.47;21.45;;;153.80;2252.80;;;;;;4947207;29;20031;-76
2022/03/02 11:36:45;;;;;;;45.40;30.75;;;153.70;2252.80;;;;;;4952590;29;20032;-76
2022/03/02 11:39:12;;;;;;;32.13;19.70;;;153.60;2252.80;;;;;;4953104;29;20024;-79
2022/03/02 11:41:40;;;;;;;38.53;24.67;;;153.60;2252.80;;;;;;4940540;29;20333;-78
2022/03/02 11:44:32;;;;;;;30.92;19.70;;;153.80;2252.80;;;;;;4938163;29;20391;-80
2022/03/02 11:47:00;;;;;;;33.53;21.80;;;153.80;2252.80;;;;;;4937858;29;20038;-81
2022/03/02 11:49:44;;;;;;;36.10;22.90;;;153.90;2252.80;;;;;;4940293;29;20166;-80
2022/03/02 11:52:15;;;;;;;29.13;20.17;;;154.00;2252.80;;;;;;4962236;29;20109;-75
2022/03/02 11:54:50;;;;;;;36.35;23.33;;;154.30;2252.80;;;;;;4949199;29;20026;-78
2022/03/02 11:57:20;;;;;;;29.10;20.25;;;179.60;2201.60;;;;;;4960305;29;20079;-78
2022/03/02 11:59:47;;;;;;;40.08;23.42;;;179.70;2150.40;;;;;;4941760;29;20461;-77
2022/03/02 12:02:21;;;;;;;30.08;18.42;;;179.60;2099.20;;;;;;4958734;29;20055;-80
2022/03/02 12:05:07;;;;;;;24.27;17.50;;;204.80;2048.00;;;;;;4959051;29;20361;-79
2022/03/02 12:07:47;;;;;;;22.60;15.43;;;205.00;2048.00;;;;;;4940687;29;20499;-76
2022/03/02 12:10:21;;;;;;;28.02;17.33;;;180.00;2022.40;;;;;;4957292;29;20034;-78
2022/03/02 12:12:48;;;;;;;22.38;14.52;;;204.80;2048.00;;;;;;4943812;29;20381;-77